Time;durP1;ratioP1;P1;durP2;ratioP2;P2;SDS_P1;SDS_P2;PMS_P1;PMS_P2;Temp;Humidity;BMP_temperature;BMP_pressure;BME280_temperature;BME280_humidity;BME280_pressure;Samples;Min_cycle;Max_cycle;Signal;HPM_P1;HPM_P2
2023/05/30 00:02:25;;;;;;;9.75;5.80;;;;;;;15.22;100.00;98624.53;4486052;32;20169;-65
2023/05/30 00:04:55;;;;;;;12.80;6.20;;;;;;;15.18;100.00;98619.75;4486130;31;20096;-65
2023/05/30 00:07:22;;;;;;;10.75;6.07;;;;;;;15.13;100.00;98624.75;4486067;31;20095;-65
2023/05/30 00:09:49;;;;;;;10.38;6.20;;;;;;;15.06;100.00;98624.56;4485962;31;20142;-65
2023/05/30 00:12:17;;;;;;;12.07;6.20;;;;;;;15.03;100.00;98624.91;4483315;31;20500;-65
2023/05/30 00:14:44;;;;;;;8.90;5.62;;;;;;;15.02;100.00;98621.47;4470234;32;20120;-65
2023/05/30 00:17:11;;;;;;;11.38;5.80;;;;;;;15.06;100.00;98614.03;4486032;31;20122;-64
2023/05/30 00:19:39;;;;;;;12.07;6.35;;;;;;;14.97;100.00;98617.69;4485936;32;20147;-65
2023/05/30 00:22:07;;;;;;;14.90;6.30;;;;;;;14.97;100.00;98615.84;4485972;31;20222;-65
2023/05/30 00:24:34;;;;;;;12.02;6.75;;;;;;;14.97;100.00;98607.94;4485786;31;20096;-65
2023/05/30 00:27:02;;;;;;;11.32;6.18;;;;;;;14.98;100.00;98614.87;4486138;31;20227;-65
2023/05/30 00:29:29;;;;;;;13.48;6.80;;;;;;;14.99;100.00;98618.31;4486061;31;20088;-65
2023/05/30 00:31:56;;;;;;;11.40;6.20;;;;;;;15.03;100.00;98614.37;4485852;32;20155;-65
2023/05/30 00:34:23;;;;;;;9.88;6.12;;;;;;;15.05;100.00;98615.84;4485639;32;20428;-65
2023/05/30 00:36:51;;;;;;;10.65;5.78;;;;;;;15.12;100.00;98618.62;4485734;31;20080;-65
2023/05/30 00:39:18;;;;;;;8.50;6.05;;;;;;;15.18;100.00;98623.22;4485621;32;20443;-65
2023/05/30 00:41:45;;;;;;;10.93;5.53;;;;;;;15.21;100.00;98627.34;4485411;32;20430;-65
2023/05/30 00:44:12;;;;;;;11.25;5.87;;;;;;;15.26;100.00;98630.28;4486000;32;20096;-64
2023/05/30 00:46:40;;;;;;;7.60;5.03;;;;;;;15.33;100.00;98623.31;4484401;32;20100;-65
2023/05/30 00:49:08;;;;;;;11.65;6.40;;;;;;;15.39;100.00;98625.28;4484611;32;20133;-65
2023/05/30 00:51:35;;;;;;;11.12;5.50;;;;;;;15.31;100.00;98620.06;4484471;32;20462;-64
2023/05/30 00:54:03;;;;;;;12.52;6.32;;;;;;;15.33;100.00;98622.53;4485664;32;20377;-64
2023/05/30 00:56:30;;;;;;;14.82;6.45;;;;;;;15.31;100.00;98620.06;4485722;31;20374;-64
2023/05/30 00:58:59;;;;;;;15.13;6.43;;;;;;;15.32;100.00;98628.78;4485515;31;20114;-65
2023/05/30 01:01:26;;;;;;;8.88;5.78;;;;;;;15.34;100.00;98626.81;4483922;32;20127;-65
2023/05/30 01:03:56;;;;;;;10.63;6.05;;;;;;;15.39;100.00;98632.38;4485937;32;20554;-65
2023/05/30 01:06:27;;;;;;;12.55;6.22;;;;;;;15.39;100.00;98630.56;4485422;31;20080;-64
2023/05/30 01:08:54;;;;;;;10.13;6.07;;;;;;;15.43;100.00;98620.50;4485703;31;20522;-64
2023/05/30 01:11:27;;;;;;;10.57;6.60;;;;;;;15.44;100.00;98628.25;4484374;32;20584;-65
2023/05/30 01:14:24;;;;;;;10.13;6.25;;;;;;;15.49;100.00;98624.25;4457788;32;20134;-65
2023/05/30 01:16:58;;;;;;;10.57;6.22;;;;;;;15.52;100.00;98619.47;4481922;32;20244;-65
2023/05/30 01:19:46;;;;;;;9.95;5.75;;;;;;;15.57;100.00;98626.88;4484250;32;20105;-65
2023/05/30 01:22:32;;;;;;;13.02;6.20;;;;;;;15.58;100.00;98629.34;4485530;31;20080;-65
2023/05/30 01:25:14;;;;;;;9.60;5.68;;;;;;;15.60;100.00;98629.97;4485567;31;20138;-65
2023/05/30 01:28:03;;;;;;;10.80;5.57;;;;;;;15.63;100.00;98631.44;4484115;32;20197;-65
2023/05/30 01:30:33;;;;;;;8.20;5.37;;;;;;;15.70;100.00;98629.78;4485424;31;20135;-65
2023/05/30 01:33:01;;;;;;;8.68;5.32;;;;;;;15.70;100.00;98628.94;4484080;32;20115;-65
2023/05/30 01:35:28;;;;;;;9.35;5.22;;;;;;;15.69;100.00;98624.66;4485362;31;20092;-65
2023/05/30 01:38:00;;;;;;;9.07;5.12;;;;;;;15.67;100.00;98632.75;4485594;32;20077;-65
2023/05/30 01:40:28;;;;;;;9.35;5.68;;;;;;;15.66;100.00;98628.47;4485203;32;20096;-65
2023/05/30 01:43:13;;;;;;;;;;;;;;;;;;;;;
2023/05/30 01:45:46;;;;;;;12.25;5.53;;;;;;;15.64;100.00;98625.19;4484389;32;20513;-65
2023/05/30 01:48:34;;;;;;;8.10;5.15;;;;;;;15.61;100.00;98623.72;4484103;32;20583;-65
2023/05/30 01:51:08;;;;;;;11.25;6.18;;;;;;;15.61;100.00;98625.53;4483587;32;20096;-65
2023/05/30 01:53:39;;;;;;;8.88;4.90;;;;;;;15.63;100.00;98614.78;4484896;32;20161;-64
2023/05/30 01:56:07;;;;;;;8.00;4.85;;;;;;;15.63;100.00;98615.59;4484057;32;20390;-64
2023/05/30 01:58:36;;;;;;;7.75;4.93;;;;;;;15.63;100.00;98615.59;4484257;32;20084;-65
2023/05/30 02:01:04;;;;;;;8.90;5.55;;;;;;;15.56;100.00;98612.00;4485148;31;20080;-64
2023/05/30 02:03:34;;;;;;;11.98;5.50;;;;;;;15.61;100.00;98615.78;4484414;32;20107;-64
2023/05/30 02:06:02;;;;;;;10.48;5.87;;;;;;;15.58;100.00;98613.50;4485095;31;20469;-64
2023/05/30 02:08:29;;;;;;;8.63;5.03;;;;;;;15.59;100.00;98614.31;4485161;32;20458;-65
2023/05/30 02:10:56;;;;;;;8.32;5.47;;;;;;;15.38;100.00;98613.09;4485275;32;20096;-64
2023/05/30 02:13:24;;;;;;;10.43;5.80;;;;;;;15.26;100.00;98611.81;4475190;31;20545;-65
2023/05/30 02:15:51;;;;;;;8.60;5.32;;;;;;;15.16;100.00;98617.28;4477039;32;20212;-64
2023/05/30 02:18:19;;;;;;;10.02;5.70;;;;;;;15.13;100.00;98624.75;4484948;32;20108;-64
2023/05/30 02:20:48;;;;;;;12.82;5.78;;;;;;;15.14;100.00;98621.09;4485142;31;20459;-64
2023/05/30 02:23:15;;;;;;;9.93;5.37;;;;;;;15.06;100.00;98616.66;4484889;32;20092;-65
2023/05/30 02:25:43;;;;;;;10.05;4.78;;;;;;;15.08;100.00;98617.34;4484991;32;20131;-65
2023/05/30 02:28:10;;;;;;;10.52;5.47;;;;;;;15.17;100.00;98615.47;4484914;32;20478;-65
2023/05/30 02:30:37;;;;;;;8.93;4.80;;;;;;;15.21;100.00;98611.50;4484884;32;20449;-65
2023/05/30 02:33:05;;;;;;;9.80;4.95;;;;;;;15.22;100.00;98615.81;4485232;31;20096;-65
2023/05/30 02:35:35;;;;;;;8.90;5.60;;;;;;;15.20;100.00;98608.06;4485004;31;20502;-65
2023/05/30 02:38:02;;;;;;;11.38;5.37;;;;;;;15.21;100.00;98611.50;4484748;31;20147;-65
2023/05/30 02:40:29;;;;;;;9.73;4.90;;;;;;;15.21;100.00;98611.50;4485087;32;20450;-65
2023/05/30 02:42:57;;;;;;;7.53;4.62;;;;;;;15.19;100.00;98602.94;4484707;31;20117;-64
2023/05/30 02:45:29;;;;;;;8.77;5.50;;;;;;;15.18;100.00;98598.66;4484954;32;20457;-65
2023/05/30 02:47:57;;;;;;;12.18;5.15;;;;;;;15.19;100.00;98602.94;4484924;31;20092;-65
2023/05/30 02:50:25;;;;;;;9.77;5.03;;;;;;;15.18;100.00;98598.66;4484927;32;20081;-65
2023/05/30 02:52:52;;;;;;;8.93;5.32;;;;;;;15.17;100.00;98597.84;4484761;32;20551;-65
2023/05/30 02:55:20;;;;;;;6.10;4.47;;;;;;;15.16;100.00;98598.81;4485020;32;20577;-65
2023/05/30 02:57:48;;;;;;;10.00;4.85;;;;;;;15.19;100.00;98605.59;4484937;31;20175;-65
2023/05/30 03:00:16;;;;;;;8.77;4.45;;;;;;;15.18;100.00;98601.28;4484794;32;20149;-64
2023/05/30 03:02:45;;;;;;;14.63;5.57;;;;;;;15.16;100.00;98603.28;4484568;31;20108;-65
2023/05/30 03:05:12;;;;;;;14.23;5.12;;;;;;;15.14;100.00;98602.62;4485019;31;20566;-65
2023/05/30 03:07:40;;;;;;;8.73;5.00;;;;;;;15.16;100.00;98608.56;4484601;32;20097;-65
2023/05/30 03:10:08;;;;;;;10.40;5.57;;;;;;;15.16;100.00;98603.28;4484604;31;20513;-65
2023/05/30 03:12:37;;;;;;;8.77;5.03;;;;;;;15.12;100.00;98605.44;4473471;32;20185;-65
2023/05/30 03:15:06;;;;;;;7.95;4.80;;;;;;;15.11;100.00;98616.16;4457999;32;20124;-65
2023/05/30 03:17:34;;;;;;;8.15;5.00;;;;;;;15.03;100.00;98614.37;4484733;31;20141;-65
2023/05/30 03:20:06;;;;;;;10.85;5.80;;;;;;;15.01;100.00;98617.16;4484535;32;20092;-65
2023/05/30 03:22:34;;;;;;;19.65;5.78;;;;;;;15.09;100.00;98621.59;4484767;31;20514;-65
2023/05/30 03:25:02;;;;;;;11.27;5.30;;;;;;;15.21;100.00;98625.50;4484444;32;20104;-65
2023/05/30 03:27:30;;;;;;;8.55;5.32;;;;;;;15.25;100.00;98618.09;4484517;32;20502;-65
2023/05/30 03:29:57;;;;;;;10.68;4.95;;;;;;;15.36;100.00;98623.00;4484531;31;20125;-65
2023/05/30 03:32:25;;;;;;;9.80;5.03;;;;;;;15.49;100.00;98630.38;4484306;32;20402;-65
2023/05/30 03:34:52;;;;;;;9.30;5.25;;;;;;;15.55;100.00;98634.16;4484458;31;20136;-65
2023/05/30 03:37:20;;;;;;;9.25;5.32;;;;;;;15.61;100.00;98631.63;4484347;31;20096;-65
2023/05/30 03:39:48;;;;;;;9.48;5.47;;;;;;;15.72;100.00;98630.41;4483968;32;20103;-65
2023/05/30 03:42:15;;;;;;;6.78;4.43;;;;;;;15.91;100.00;98625.69;4484138;32;20118;-65
2023/05/30 03:44:45;;;;;;;14.27;5.40;;;;;;;16.03;100.00;98626.94;4484074;32;20147;-65
2023/05/30 03:47:12;;;;;;;9.25;4.60;;;;;;;16.12;100.00;98625.91;4484010;31;20127;-65
2023/05/30 03:49:39;;;;;;;10.52;5.12;;;;;;;16.25;100.00;98624.50;4483907;31;20481;-65
2023/05/30 03:52:07;;;;;;;13.27;5.25;;;;;;;16.38;100.00;98630.00;4483968;32;20492;-64
2023/05/30 03:54:34;;;;;;;8.75;4.37;;;;;;;16.46;100.00;98629.13;4483994;31;20088;-65
2023/05/30 03:57:01;;;;;;;8.18;4.70;;;;;;;16.50;100.00;98628.59;4483702;32;20149;-64
2023/05/30 03:59:29;;;;;;;10.85;4.85;;;;;;;16.54;100.00;98630.88;4483761;31;20389;-65
2023/05/30 04:01:57;;;;;;;11.93;5.18;;;;;;;16.55;100.00;98635.13;4483713;31;20108;-65
2023/05/30 04:04:26;;;;;;;11.20;4.93;;;;;;;16.60;100.00;98638.91;4483634;31;20084;-65
2023/05/30 04:06:53;;;;;;;11.43;4.50;;;;;;;16.63;100.00;98648.31;4483349;32;20084;-65
2023/05/30 04:09:21;;;;;;;10.02;4.75;;;;;;;16.65;100.00;98641.84;4458774;32;20100;-64
2023/05/30 04:11:48;;;;;;;10.68;5.18;;;;;;;16.68;100.00;98646.78;4456205;32;20127;-64
2023/05/30 04:14:16;;;;;;;11.85;4.75;;;;;;;16.75;100.00;98640.75;4467721;32;20111;-65
2023/05/30 04:16:43;;;;;;;9.48;5.00;;;;;;;16.81;100.00;98650.63;4483100;32;20172;-65
2023/05/30 04:19:15;;;;;;;13.07;8.05;;;;;;;16.85;100.00;98650.06;4485955;32;20115;-65
2023/05/30 04:21:42;;;;;;;13.18;4.72;;;;;;;16.91;100.00;98655.66;4485083;31;20153;-64
2023/05/30 04:24:12;;;;;;;10.93;4.80;;;;;;;16.97;100.00;98657.59;4484800;31;20176;-65
2023/05/30 04:26:40;;;;;;;19.55;5.50;;;;;;;16.97;100.00;98657.59;4484686;31;20119;-65
2023/05/30 04:29:08;;;;;;;12.02;4.78;;;;;;;17.04;100.00;98661.16;4484299;32;20127;-64
2023/05/30 04:31:38;;;;;;;10.57;4.68;;;;;;;17.02;100.00;98656.06;4485296;31;20798;-65
2023/05/30 04:34:06;;;;;;;12.95;4.90;;;;;;;17.08;100.00;98658.97;4484618;32;20138;-65
2023/05/30 04:36:36;;;;;;;10.90;4.97;;;;;;;17.18;100.00;98663.00;4485695;32;20164;-65
2023/05/30 04:39:04;;;;;;;17.60;5.37;;;;;;;17.31;100.00;98672.13;4483157;32;20171;-65
2023/05/30 04:41:32;;;;;;;10.88;4.50;;;;;;;17.41;100.00;98672.69;4484841;31;20126;-66
2023/05/30 04:44:00;;;;;;;12.15;5.00;;;;;;;17.50;100.00;98671.59;4485745;31;20561;-65
2023/05/30 04:46:28;;;;;;;8.75;4.87;;;;;;;17.62;100.00;98679.03;4473102;31;20871;-65
2023/05/30 04:49:00;;;;;;;12.95;4.78;;;;;;;17.70;100.00;98679.78;4460793;32;20164;-65
2023/05/30 04:51:30;;;;;;;9.32;4.12;;;;;;;17.71;100.00;98680.59;4456598;32;20134;-65
2023/05/30 04:53:57;;;;;;;13.00;5.55;;;;;;;17.70;100.00;98678.97;4453127;32;20492;-65
2023/05/30 04:56:26;;;;;;;9.98;4.78;;;;;;;17.66;100.00;98675.03;4453509;32;20121;-65
2023/05/30 04:58:53;;;;;;;8.32;4.47;;;;;;;17.65;100.00;98682.16;4458470;32;20084;-65
2023/05/30 05:01:23;;;;;;;9.38;4.68;;;;;;;17.68;100.00;98673.84;4467344;32;20164;-65
2023/05/30 05:03:51;;;;;;;11.07;5.43;;;;;;;17.79;100.00;98684.94;4461249;32;20100;-65
2023/05/30 05:06:19;;;;;;;14.32;5.37;;;;;;;17.77;100.00;98682.47;4463698;32;20084;-65
2023/05/30 05:08:48;;;;;;;24.48;5.50;;;;;;;17.94;100.00;98677.00;4463667;32;20100;-65
2023/05/30 05:11:15;;;;;;;20.52;5.30;;;;;;;18.08;100.00;98682.25;4461804;32;20137;-65
2023/05/30 05:13:42;;;;;;;24.83;5.82;;;;;;;18.19;100.00;98686.25;4461181;32;20490;-65
2023/05/30 05:16:10;;;;;;;29.48;7.53;;;;;;;18.26;100.00;98684.50;4461136;32;20127;-65
2023/05/30 05:18:37;;;;;;;9.82;5.25;;;;;;;18.40;99.10;98695.25;4456523;32;20101;-65
2023/05/30 05:21:06;;;;;;;34.80;6.37;;;;;;;18.45;97.88;98690.16;4463952;32;20606;-65
2023/05/30 05:23:34;;;;;;;139.70;11.10;;;;;;;18.44;97.41;98697.31;4466126;32;20166;-65
2023/05/30 05:26:01;;;;;;;19.92;5.25;;;;;;;18.54;97.89;98694.34;4467299;32;20096;-65
2023/05/30 05:28:28;;;;;;;27.85;6.12;;;;;;;18.62;94.79;98698.69;4468437;32;20080;-65
2023/05/30 05:30:58;;;;;;;52.62;7.45;;;;;;;18.69;96.69;98698.75;4466018;32;21026;-65
2023/05/30 05:33:25;;;;;;;106.68;8.88;;;;;;;18.90;97.85;98690.78;4469370;32;20093;-65
2023/05/30 05:35:52;;;;;;;43.90;8.40;;;;;;;19.10;94.29;98698.06;4452386;32;20108;-65
2023/05/30 05:38:20;;;;;;;32.92;6.37;;;;;;;19.36;94.20;98701.91;4465998;32;20122;-65
2023/05/30 05:40:49;;;;;;;62.55;7.70;;;;;;;19.31;91.49;98700.66;4465924;32;20115;-65
2023/05/30 05:43:16;;;;;;;39.72;7.20;;;;;;;19.23;90.89;98708.78;4466087;32;20483;-66
2023/05/30 05:45:43;;;;;;;19.85;6.75;;;;;;;19.38;90.64;98705.19;4468575;32;20112;-66
2023/05/30 05:48:12;;;;;;;26.15;5.78;;;;;;;19.41;89.52;98704.78;4473335;32;20152;-66
2023/05/30 05:50:39;;;;;;;41.83;6.93;;;;;;;19.51;88.72;98710.56;4469527;32;20089;-66
2023/05/30 05:53:07;;;;;;;32.38;6.22;;;;;;;19.27;88.48;98707.41;4468100;32;20142;-66
2023/05/30 05:55:34;;;;;;;35.63;7.10;;;;;;;19.41;90.76;98712.75;4468438;32;20093;-66
2023/05/30 05:58:01;;;;;;;30.52;5.97;;;;;;;19.66;89.72;98713.91;4467239;32;20149;-66
2023/05/30 06:00:30;;;;;;;75.40;10.30;;;;;;;19.62;86.98;98712.69;4468061;32;20992;-66
2023/05/30 06:02:58;;;;;;;26.62;6.37;;;;;;;19.47;86.90;98711.97;4466465;32;20104;-66
2023/05/30 06:05:26;;;;;;;17.42;5.40;;;;;;;19.45;86.55;98716.69;4466976;32;20588;-66
2023/05/30 06:07:55;;;;;;;29.08;5.60;;;;;;;19.66;87.72;98718.44;4466257;32;20081;-66
2023/05/30 06:10:22;;;;;;;22.92;5.35;;;;;;;19.69;84.43;98718.84;4457545;32;20139;-66
2023/05/30 06:12:49;;;;;;;11.52;5.15;;;;;;;19.90;85.13;98730.44;4459617;32;20096;-65
2023/05/30 06:15:17;;;;;;;21.58;5.90;;;;;;;19.92;83.37;98731.03;4468955;32;20092;-65
2023/05/30 06:17:44;;;;;;;18.30;5.45;;;;;;;20.01;85.39;98727.19;4467543;32;20168;-66
2023/05/30 06:20:11;;;;;;;46.80;7.97;;;;;;;20.00;84.58;98736.19;4468691;32;20109;-66
2023/05/30 06:22:39;;;;;;;22.30;5.90;;;;;;;19.88;84.40;98734.28;4467377;32;20089;-66
2023/05/30 06:25:07;;;;;;;25.33;6.53;;;;;;;20.03;86.05;98735.00;4466816;32;20096;-66
2023/05/30 06:27:34;;;;;;;14.65;5.18;;;;;;;19.69;86.09;98729.47;4460905;32;20088;-66
2023/05/30 06:30:02;;;;;;;34.47;6.68;;;;;;;19.72;86.45;98738.09;4464477;32;20127;-66
2023/05/30 06:32:29;;;;;;;17.75;5.75;;;;;;;19.83;84.62;98737.53;4459137;32;20655;-65
2023/05/30 06:34:57;;;;;;;15.18;4.95;;;;;;;20.01;86.68;98732.50;4462885;32;20382;-66
2023/05/30 06:37:24;;;;;;;23.12;5.40;;;;;;;20.38;81.92;98737.53;4465932;32;20092;-65
2023/05/30 06:39:51;;;;;;;12.02;4.90;;;;;;;20.74;81.68;98745.19;4456301;32;20208;-65
2023/05/30 06:42:20;;;;;;;14.05;5.45;;;;;;;20.67;77.58;98747.03;4463648;32;20108;-65
2023/05/30 06:44:47;;;;;;;8.93;4.43;;;;;;;20.86;81.79;98750.75;4464255;32;20105;-66
2023/05/30 06:47:15;;;;;;;21.25;5.00;;;;;;;20.71;77.96;98748.28;4463684;32;20089;-66
2023/05/30 06:49:42;;;;;;;29.45;6.30;;;;;;;20.71;75.54;98752.75;4461702;32;20148;-67
2023/05/30 06:52:09;;;;;;;17.50;6.45;;;;;;;20.61;76.16;98750.47;4461316;32;20105;-65
2023/05/30 06:54:37;;;;;;;19.20;5.93;;;;;;;20.72;80.87;98757.06;4465173;32;20096;-66
2023/05/30 06:57:04;;;;;;;13.75;5.28;;;;;;;20.88;78.07;98753.19;4464105;32;20134;-66
2023/05/30 06:59:33;;;;;;;14.57;4.37;;;;;;;20.79;76.38;98757.06;4459825;32;20113;-66
2023/05/30 07:02:01;;;;;;;14.50;5.10;;;;;;;20.76;77.46;98763.63;4460462;32;20118;-64
2023/05/30 07:04:29;;;;;;;7.45;4.85;;;;;;;20.91;79.00;98769.56;4461348;32;20092;-65
2023/05/30 07:06:57;;;;;;;14.63;5.93;;;;;;;20.88;74.77;98771.84;4466747;32;20088;-65
2023/05/30 07:09:26;;;;;;;11.85;5.32;;;;;;;20.89;74.52;98770.78;4466238;32;20489;-66
2023/05/30 07:11:55;;;;;;;16.58;5.00;;;;;;;20.73;75.78;98772.84;4465040;32;20176;-66
2023/05/30 07:14:23;;;;;;;10.57;5.35;;;;;;;20.56;75.33;98769.72;4454742;32;20126;-66
2023/05/30 07:16:50;;;;;;;9.02;5.07;;;;;;;20.78;75.43;98768.75;4462903;32;20122;-66
2023/05/30 07:19:18;;;;;;;11.82;5.15;;;;;;;20.93;73.91;98777.34;4466645;32;20097;-66
2023/05/30 07:21:45;;;;;;;13.32;5.53;;;;;;;21.05;74.61;98772.25;4465231;32;20120;-65
2023/05/30 07:24:12;;;;;;;11.25;5.12;;;;;;;21.12;73.48;98774.91;4466902;32;20542;-65
2023/05/30 07:26:40;;;;;;;10.02;4.87;;;;;;;21.19;73.76;98775.72;4450522;32;20085;-65
2023/05/30 07:29:07;;;;;;;9.00;5.40;;;;;;;21.45;74.34;98778.38;4456658;32;20447;-67
2023/05/30 07:31:34;;;;;;;22.77;5.60;;;;;;;21.43;73.13;98771.59;4460926;32;20093;-66
2023/05/30 07:34:02;;;;;;;14.18;6.03;;;;;;;21.51;75.16;98762.59;4460345;32;20101;-66
2023/05/30 07:36:31;;;;;;;13.70;5.32;;;;;;;21.36;75.05;98766.28;4458766;32;20119;-67
2023/05/30 07:39:00;;;;;;;22.33;5.25;;;;;;;21.47;77.06;98772.00;4459000;32;20126;-66
2023/05/30 07:41:27;;;;;;;28.02;7.28;;;;;;;21.52;75.87;98769.56;4455550;32;20105;-67
2023/05/30 07:43:55;;;;;;;19.08;5.93;;;;;;;21.53;80.16;98771.19;4458484;32;20061;-67
2023/05/30 07:46:22;;;;;;;9.95;4.87;;;;;;;21.21;78.33;98773.66;4458941;32;20135;-64
2023/05/30 07:48:49;;;;;;;11.20;5.68;;;;;;;21.17;76.01;98777.78;4458441;32;20097;-67
2023/05/30 07:51:19;;;;;;;13.30;6.32;;;;;;;21.40;83.14;98770.16;4455755;32;20769;-66
2023/05/30 07:53:46;;;;;;;13.88;6.65;;;;;;;21.85;84.38;98769.47;4462599;32;20266;-66
2023/05/30 07:56:15;;;;;;;16.85;6.03;;;;;;;21.77;80.04;98783.88;4452547;32;20112;-66
2023/05/30 07:58:42;;;;;;;8.88;5.28;;;;;;;21.86;80.37;98779.09;4459950;32;20136;-66
2023/05/30 08:01:10;;;;;;;14.95;6.60;;;;;;;22.18;81.68;98778.38;4463566;32;20096;-66
2023/05/30 08:03:42;;;;;;;23.42;7.03;;;;;;;22.23;78.24;98773.25;4459070;32;20121;-66
2023/05/30 08:06:31;;;;;;;14.18;6.07;;;;;;;22.29;82.12;98780.38;4461232;32;20365;-65
2023/05/30 08:08:59;;;;;;;9.18;5.65;;;;;;;22.53;78.00;98778.03;4461978;32;20145;-65
2023/05/30 08:11:26;;;;;;;11.70;5.85;;;;;;;23.11;76.45;98787.72;4460980;32;20105;-65
2023/05/30 08:13:55;;;;;;;11.07;5.90;;;;;;;23.29;74.73;98785.09;4458196;32;20100;-65
2023/05/30 08:16:23;;;;;;;10.13;6.43;;;;;;;23.50;75.66;98785.75;4459423;32;20128;-66
2023/05/30 08:18:51;;;;;;;25.40;6.05;;;;;;;23.46;72.18;98785.34;4459930;32;20093;-65
2023/05/30 08:21:19;;;;;;;17.02;5.60;;;;;;;23.38;74.09;98794.47;4460389;32;20108;-65
2023/05/30 08:23:46;;;;;;;12.37;6.20;;;;;;;23.20;72.87;98787.22;4462669;32;20115;-65
2023/05/30 08:26:15;;;;;;;12.55;5.62;;;;;;;23.09;73.04;98793.28;4462398;32;20119;-65
2023/05/30 08:28:42;;;;;;;15.75;6.37;;;;;;;22.60;77.48;98792.16;4462791;32;20491;-65
2023/05/30 08:31:10;;;;;;;9.60;5.82;;;;;;;22.09;77.36;98783.97;4455423;32;20205;-65
2023/05/30 08:33:37;;;;;;;44.53;8.32;;;;;;;22.18;81.90;98789.87;4463392;32;20148;-65
2023/05/30 08:36:10;;;;;;;13.77;5.80;;;;;;;22.28;80.92;98781.41;4460173;32;20077;-65
2023/05/30 08:38:38;;;;;;;9.57;6.25;;;;;;;22.69;80.38;98788.19;4459835;32;20144;-65
2023/05/30 08:41:05;;;;;;;10.38;5.32;;;;;;;22.58;72.99;98784.34;4454988;32;20109;-65
2023/05/30 08:43:33;;;;;;;14.60;5.28;;;;;;;22.82;74.87;98790.78;4452005;32;20409;-65
2023/05/30 08:46:05;;;;;;;18.62;6.22;;;;;;;23.14;74.61;98793.44;4456240;32;20102;-65
2023/05/30 08:48:34;;;;;;;15.80;6.03;;;;;;;23.08;72.71;98791.63;4455840;32;20101;-65
2023/05/30 08:51:03;;;;;;;14.20;5.90;;;;;;;23.25;75.70;98793.78;4461463;32;20126;-67
2023/05/30 08:53:42;;;;;;;11.55;6.47;;;;;;;23.09;75.26;98795.09;4461636;32;20598;-66
2023/05/30 08:56:11;;;;;;;9.93;6.35;;;;;;;22.76;77.41;98801.53;4460204;32;20122;-66
2023/05/30 08:58:42;;;;;;;12.35;5.55;;;;;;;22.66;77.97;98805.47;4454673;32;20136;-65
2023/05/30 09:01:10;;;;;;;12.15;6.35;;;;;;;22.95;71.53;98802.41;4453645;32;20181;-65
2023/05/30 09:03:40;;;;;;;15.77;6.87;;;;;;;23.05;76.53;98810.75;4459463;32;21330;-65
2023/05/30 09:06:11;;;;;;;13.48;6.43;;;;;;;23.35;79.06;98807.47;4455200;32;20104;-65
2023/05/30 09:08:41;;;;;;;11.75;6.15;;;;;;;23.46;76.54;98817.44;4459436;32;20104;-66
2023/05/30 09:11:09;;;;;;;10.15;5.75;;;;;;;23.18;75.36;98818.69;4473373;32;20146;-66
2023/05/30 09:13:37;;;;;;;14.50;6.18;;;;;;;23.35;74.68;98826.19;4457667;32;20167;-66
2023/05/30 09:16:05;;;;;;;12.25;5.60;;;;;;;23.43;71.23;98825.88;4460368;32;20122;-66
2023/05/30 09:18:35;;;;;;;13.70;6.12;;;;;;;23.35;76.09;98827.00;4458240;32;20104;-66
2023/05/30 09:21:03;;;;;;;11.93;6.85;;;;;;;23.68;78.64;98822.34;4462743;32;20150;-66
2023/05/30 09:23:31;;;;;;;9.70;6.53;;;;;;;23.80;78.55;98825.97;4453590;32;20127;-66
2023/05/30 09:26:00;;;;;;;17.58;6.85;;;;;;;23.33;72.90;98825.56;4455602;32;20077;-66
2023/05/30 09:28:28;;;;;;;16.55;7.15;;;;;;;23.55;70.87;98832.16;4454156;32;20123;-66
2023/05/30 09:31:01;;;;;;;11.10;6.80;;;;;;;23.78;66.26;98830.69;4454009;32;20119;-66
2023/05/30 09:37:26;;;;;;;13.18;6.62;;;;;;;23.49;70.53;98833.03;4456328;32;20158;-64
2023/05/30 09:40:07;;;;;;;33.28;8.50;;;;;;;22.91;70.38;98835.91;4453963;32;20089;-66
2023/05/30 09:42:48;;;;;;;19.87;5.95;;;;;;;23.29;73.61;98835.87;4458695;32;20156;-66
2023/05/30 09:45:18;;;;;;;11.02;6.10;;;;;;;23.48;74.69;98833.25;4456588;32;20108;-67
2023/05/30 09:47:46;;;;;;;13.05;5.60;;;;;;;23.23;68.99;98831.41;4459311;32;20080;-67
2023/05/30 09:50:18;;;;;;;21.92;6.40;;;;;;;23.42;70.87;98834.94;4458731;32;20133;-67
2023/05/30 09:52:51;;;;;;;39.97;7.00;;;;;;;23.46;72.44;98838.81;4456806;32;20142;-64
2023/05/30 09:55:19;;;;;;;10.27;5.37;;;;;;;23.02;74.72;98837.91;4463452;32;20119;-67
2023/05/30 09:57:50;;;;;;;16.00;5.00;;;;;;;23.17;72.71;98835.75;4460323;32;20159;-67
2023/05/30 10:00:31;;;;;;;20.80;4.90;;;;;;;23.29;78.82;98835.06;4446445;32;520344;-67
2023/05/30 10:02:58;;;;;;;33.30;4.90;;;;;;;23.42;76.77;98836.81;4458387;32;20095;-66
2023/05/30 10:05:27;;;;;;;80.28;7.82;;;;;;;23.69;71.02;98827.47;4461529;32;20093;-66
2023/05/30 10:07:56;;;;;;;8.88;3.60;;;;;;;23.53;66.85;98833.44;4464360;32;20147;-67
2023/05/30 10:10:25;;;;;;;10.35;5.28;;;;;;;23.88;75.53;98828.38;4463592;32;20123;-67
2023/05/30 10:12:54;;;;;;;20.30;4.50;;;;;;;23.77;74.44;98833.59;4462236;32;20157;-67
2023/05/30 10:15:23;;;;;;;20.20;5.07;;;;;;;23.86;65.08;98827.78;4471737;32;20453;-67
2023/05/30 10:18:10;;;;;;;6.70;3.53;;;;;;;23.76;69.61;98823.94;4472306;31;20085;-67
2023/05/30 10:20:54;;;;;;;49.63;5.97;;;;;;;23.65;75.83;98825.47;4467731;32;20473;-66
2023/05/30 10:23:22;;;;;;;7.82;4.05;;;;;;;23.42;71.10;98826.09;4463678;32;20169;-66
2023/05/30 10:25:51;;;;;;;4.65;3.50;;;;;;;23.45;74.78;98814.97;4468139;32;20375;-67
2023/05/30 10:28:23;;;;;;;110.57;7.82;;;;;;;24.13;70.96;98813.28;4463670;32;20089;-66
2023/05/30 10:30:51;;;;;;;10.90;3.90;;;;;;;24.29;63.37;98817.22;4464951;32;20142;-65
2023/05/30 10:33:20;;;;;;;8.48;4.30;;;;;;;24.75;67.78;98829.16;4463615;32;20100;-66
2023/05/30 10:36:07;;;;;;;17.73;4.55;;;;;;;24.96;66.04;98820.59;4462363;32;20143;-66
2023/05/30 10:38:44;;;;;;;107.15;7.97;;;;;;;24.67;68.60;98826.81;4467078;32;20072;-68
2023/05/30 10:41:51;;;;;;;13.95;4.25;;;;;;;24.56;63.63;98820.34;4463318;32;20112;-67
2023/05/30 10:44:54;;;;;;;6.47;3.78;;;;;;;24.19;66.45;98812.37;4412996;32;20125;-67
2023/05/30 10:47:34;;;;;;;7.25;4.07;;;;;;;24.73;70.04;98820.56;4403905;32;20094;-68
2023/05/30 10:50:07;;;;;;;5.72;4.10;;;;;;;25.19;68.49;98826.25;4404901;32;20602;-69
2023/05/30 10:52:34;;;;;;;5.62;3.90;;;;;;;25.60;66.00;98830.75;4413064;32;20118;-68
2023/05/30 10:55:08;;;;;;;7.25;4.32;;;;;;;26.11;67.90;98820.31;4411610;32;20239;-69
2023/05/30 10:57:36;;;;;;;7.03;4.43;;;;;;;26.39;64.04;98826.78;4412695;32;20133;-69
2023/05/30 11:00:17;;;;;;;9.88;4.62;;;;;;;25.42;60.75;98822.78;4414590;32;20105;-67
2023/05/30 11:02:52;;;;;;;5.47;3.95;;;;;;;25.27;72.91;98824.06;4413820;32;20161;-67
2023/05/30 11:05:30;;;;;;;6.50;3.70;;;;;;;25.94;62.81;98819.41;4413624;32;20140;-68
2023/05/30 11:07:59;;;;;;;7.68;4.22;;;;;;;26.10;59.97;98817.84;4412654;32;20179;-69
2023/05/30 11:10:29;;;;;;;7.82;4.45;;;;;;;26.39;61.56;98811.47;4415405;32;20473;-68
2023/05/30 11:13:10;;;;;;;5.37;4.03;;;;;;;26.28;62.40;98815.00;4415579;32;20184;-69
2023/05/30 11:15:44;;;;;;;6.47;4.25;;;;;;;26.04;66.63;98816.94;4414269;32;20193;-69
2023/05/30 11:18:18;;;;;;;8.15;5.05;;;;;;;26.13;63.76;98815.53;4418051;32;20097;-69
2023/05/30 11:20:51;;;;;;;6.80;4.32;;;;;;;26.33;63.26;98816.97;4445080;32;20089;-69
2023/05/30 11:23:19;;;;;;;;;;;;;;;26.55;63.62;98807.19;4464552;32;20161;-69
2023/05/30 11:25:46;;;;;;;8.35;4.32;;;;;;;26.54;59.22;98802.88;4466996;32;20236;-69
2023/05/30 11:28:16;;;;;;;7.15;4.65;;;;;;;26.59;63.15;98799.47;4459275;32;20475;-69
2023/05/30 11:30:46;;;;;;;77.32;6.65;;;;;;;26.29;61.80;98791.66;4462365;32;20157;-68
2023/05/30 11:33:15;;;;;;;22.80;5.55;;;;;;;26.27;63.86;98797.28;4462137;32;20089;-68
2023/05/30 11:35:47;;;;;;;179.12;12.50;;;;;;;25.66;61.93;98802.97;4449922;32;20096;-69
2023/05/30 11:38:19;;;;;;;6.35;4.50;;;;;;;25.48;65.26;98811.97;4455816;32;20144;-69
2023/05/30 11:40:47;;;;;;;5.57;3.85;;;;;;;26.16;59.37;98798.94;4460418;32;20436;-69